Skip Navigation LinksHome page > Weather > Current weather Skip Navigation Links

Current Weather

Ndjamena, Chad

For information only: do not use for flight planning or navigation.
Latest weather
Observation time Saturday, May 23, 2015 2:00 PM WAT
Local time Saturday, May 23, 2015 2:20 PM WAT
Flight conditions Visual Meteorological Conditions
Winds
Wind direction variable
Wind speed 3 mph
Wind gusting to 17 mph
Visibility 6.2 mi.
Sky condition
Ceiling unlimited
Cloud layer few clouds 4,000 ft.
Temperature 104°F
Dewpoint 75°F
Altimeter 29.77 in.Hg
Derived measurements
Relative humidity 41%
Heat index 119°F
Density altitude 3677 ft.
Remarks
No significant changes expected in the next two hours.
METAR FTTJ 231300Z VRB03G15KT 9999 FEW040 40/24 Q1008 NOSIG

Settings

Location code

InnerDrive.Weather 4.0.5567.0 Release CLR 4.0.30319.34014
Copyright ©2015 Inner Drive Technology. All rights reserved. Portions Copyright ©1986-2015 David Braverman.

Find weather

Site navigation


Skip Navigation Links

Place info

Page info

PayPal - The safer, easier way to pay online!

Return home.

Copyright ©2015 Inner Drive Technology. Purveyors of fine, hand-crafted computer software. Page printed 2015-05-23T13:20:10 UTC.